Time;durP1;ratioP1;P1;durP2;ratioP2;P2;SDS_P1;SDS_P2;PMS_P1;PMS_P2;Temp;Humidity;BMP_temperature;BMP_pressure;BME280_temperature;BME280_humidity;BME280_pressure;Samples;Min_cycle;Max_cycle;Signal;HPM_P1;HPM_P2
2022/12/02 00:01:47;;;;;;;37.78;18.88;;;7.60;57.00;;;;;;4980484;28;20050;-46
2022/12/02 00:04:21;;;;;;;39.08;19.23;;;7.60;56.80;;;;;;4983185;28;20065;-50
2022/12/02 00:06:51;;;;;;;41.42;19.98;;;7.60;56.90;;;;;;4984656;28;20061;-52
2022/12/02 00:09:30;;;;;;;37.03;19.33;;;7.60;57.00;;;;;;4981724;28;20054;-46
2022/12/02 00:11:57;;;;;;;33.72;17.92;;;7.60;57.10;;;;;;4981618;28;20057;-47
2022/12/02 00:14:26;;;;;;;33.17;18.17;;;7.50;57.10;;;;;;4984365;28;20050;-52
2022/12/02 00:16:54;;;;;;;38.65;19.55;;;7.60;57.10;;;;;;4984898;28;20505;-48
2022/12/02 00:19:22;;;;;;;39.85;19.02;;;7.60;57.10;;;;;;4984426;28;20432;-46
2022/12/02 00:21:51;;;;;;;38.40;19.05;;;7.60;57.10;;;;;;4980431;28;20555;-47
2022/12/02 00:24:19;;;;;;;37.40;19.10;;;7.60;57.20;;;;;;4982928;28;20053;-47
2022/12/02 00:26:47;;;;;;;37.08;17.85;;;7.60;57.10;;;;;;4982967;28;20456;-47
2022/12/02 00:29:14;;;;;;;37.92;18.98;;;7.60;57.10;;;;;;4983476;28;20065;-47
2022/12/02 00:31:41;;;;;;;40.38;19.00;;;7.50;57.10;;;;;;4979777;28;20510;-46
2022/12/02 00:34:09;;;;;;;39.78;19.83;;;7.50;56.90;;;;;;4983748;28;20054;-54
2022/12/02 00:36:36;;;;;;;37.65;17.50;;;7.50;56.90;;;;;;4982030;28;20537;-49
2022/12/02 00:39:04;;;;;;;34.80;17.55;;;7.50;57.00;;;;;;4983846;28;20062;-50
2022/12/02 00:41:32;;;;;;;37.70;18.20;;;7.50;57.10;;;;;;4981600;28;20050;-45
2022/12/02 00:46:44;;;;;;;37.75;19.00;;;7.50;57.00;;;;;;4989985;28;20504;-48
2022/12/02 00:49:13;;;;;;;35.92;18.52;;;7.40;56.90;;;;;;4983592;28;20053;-43
2022/12/02 00:51:41;;;;;;;38.47;19.75;;;7.40;56.90;;;;;;4981908;28;20057;-48
2022/12/02 00:54:10;;;;;;;34.95;18.52;;;7.40;57.00;;;;;;4982585;28;20073;-46
2022/12/02 00:56:38;;;;;;;33.78;18.38;;;7.30;57.00;;;;;;4985102;28;20054;-47
2022/12/02 00:59:06;;;;;;;37.25;19.35;;;7.30;57.20;;;;;;4982308;28;20050;-49
2022/12/02 01:01:35;;;;;;;35.25;18.30;;;7.30;57.30;;;;;;4976535;28;20058;-44
2022/12/02 01:04:02;;;;;;;34.85;17.40;;;7.30;57.30;;;;;;4980317;28;20527;-46
2022/12/02 01:06:30;;;;;;;36.50;19.10;;;7.20;57.30;;;;;;4983377;28;20506;-46
2022/12/02 01:08:57;;;;;;;37.50;18.88;;;7.20;57.30;;;;;;4983332;28;20050;-46
2022/12/02 01:11:26;;;;;;;38.72;18.35;;;7.20;57.40;;;;;;4978737;28;20054;-49
2022/12/02 01:13:56;;;;;;;34.67;17.60;;;7.20;57.40;;;;;;4983605;28;20062;-45
2022/12/02 01:16:23;;;;;;;35.60;17.27;;;7.10;57.30;;;;;;4983355;28;20078;-47
2022/12/02 01:18:50;;;;;;;35.40;17.63;;;7.10;57.40;;;;;;4983728;28;20050;-47
2022/12/02 01:21:18;;;;;;;36.63;19.13;;;7.10;57.40;;;;;;4980652;28;20061;-47
2022/12/02 01:23:45;;;;;;;36.60;17.63;;;7.10;57.40;;;;;;4980812;28;20054;-52
2022/12/02 01:26:12;;;;;;;33.75;18.25;;;7.00;57.40;;;;;;4983800;28;20055;-49
2022/12/02 01:28:41;;;;;;;36.95;18.40;;;7.00;57.60;;;;;;4982878;28;20135;-49
2022/12/02 01:31:08;;;;;;;33.88;17.35;;;7.00;57.60;;;;;;4978282;28;20072;-44
2022/12/02 01:33:35;;;;;;;34.33;18.00;;;7.00;57.70;;;;;;4984167;28;20494;-49
2022/12/02 01:36:02;;;;;;;38.08;18.33;;;7.00;57.70;;;;;;4981461;28;20054;-43
2022/12/02 01:38:30;;;;;;;36.67;17.08;;;7.00;57.70;;;;;;4981343;28;20087;-46
2022/12/02 01:40:57;;;;;;;38.35;19.05;;;7.00;57.80;;;;;;4981166;28;20062;-47
2022/12/02 01:43:24;;;;;;;35.92;18.65;;;7.00;57.90;;;;;;4979764;28;20065;-45
2022/12/02 01:45:53;;;;;;;33.00;17.15;;;6.90;57.80;;;;;;4979707;28;20061;-46
2022/12/02 01:48:21;;;;;;;37.50;18.67;;;7.00;57.90;;;;;;4984198;28;20050;-46
2022/12/02 01:50:49;;;;;;;36.10;18.15;;;7.00;57.90;;;;;;4978440;28;20066;-45
2022/12/02 01:53:17;;;;;;;38.45;17.67;;;6.90;57.90;;;;;;4981380;28;20054;-49
2022/12/02 01:55:44;;;;;;;33.45;18.35;;;6.90;58.00;;;;;;4981399;28;20418;-44
2022/12/02 01:58:12;;;;;;;34.08;17.85;;;6.90;58.00;;;;;;4982193;28;20050;-45
2022/12/02 02:00:40;;;;;;;33.28;17.58;;;6.90;57.90;;;;;;4980609;28;20050;-46
2022/12/02 02:03:08;;;;;;;32.72;17.13;;;6.90;57.90;;;;;;4982015;28;20054;-49
2022/12/02 02:05:36;;;;;;;32.85;17.15;;;6.90;58.00;;;;;;4979258;28;20074;-51
2022/12/02 02:08:06;;;;;;;32.80;17.27;;;6.90;58.00;;;;;;4980799;28;20050;-44
2022/12/02 02:10:35;;;;;;;34.80;17.80;;;6.80;58.00;;;;;;4976857;28;20063;-47
2022/12/02 02:13:03;;;;;;;31.65;16.52;;;6.80;58.00;;;;;;4982785;28;20061;-46
2022/12/02 02:15:31;;;;;;;32.47;17.02;;;6.80;58.00;;;;;;4981610;28;20065;-46
2022/12/02 02:17:58;;;;;;;35.22;18.10;;;6.80;58.00;;;;;;4983209;28;20061;-46
2022/12/02 02:20:27;;;;;;;30.77;16.60;;;6.80;58.10;;;;;;4978079;28;21581;-47
2022/12/02 02:23:03;;;;;;;33.10;17.02;;;6.70;58.10;;;;;;4978067;28;20057;-49
2022/12/02 02:25:33;;;;;;;31.25;16.35;;;6.70;58.10;;;;;;4982206;28;20054;-48
2022/12/02 02:28:01;;;;;;;33.05;17.38;;;6.70;58.10;;;;;;4983169;28;20058;-47
2022/12/02 02:30:31;;;;;;;32.47;16.83;;;6.70;58.20;;;;;;4977692;28;20061;-48
2022/12/02 02:32:58;;;;;;;28.02;14.63;;;6.70;58.40;;;;;;4978071;28;20081;-47
2022/12/02 02:35:26;;;;;;;31.25;16.65;;;6.70;58.50;;;;;;4982607;28;20062;-50
2022/12/02 02:37:55;;;;;;;35.22;17.90;;;6.70;58.60;;;;;;4974661;28;20104;-50
2022/12/02 02:40:24;;;;;;;36.15;17.83;;;6.80;58.60;;;;;;4973943;28;20383;-51
2022/12/02 02:42:55;;;;;;;35.65;17.90;;;6.80;58.50;;;;;;4982162;28;20052;-47
2022/12/02 02:45:25;;;;;;;35.80;17.95;;;6.80;58.50;;;;;;4979354;28;20054;-48
2022/12/02 02:47:54;;;;;;;32.75;15.93;;;6.80;58.40;;;;;;4977874;28;20046;-51
2022/12/02 02:50:22;;;;;;;33.10;16.35;;;6.80;58.50;;;;;;4979078;28;20179;-48
2022/12/02 02:52:51;;;;;;;32.85;15.93;;;6.80;58.50;;;;;;4979397;28;20498;-44
2022/12/02 02:55:20;;;;;;;33.35;17.00;;;6.90;58.60;;;;;;4980947;28;20054;-45
2022/12/02 02:57:49;;;;;;;32.15;16.33;;;6.90;58.60;;;;;;4982188;28;20503;-50
2022/12/02 03:00:20;;;;;;;34.50;16.27;;;6.90;58.50;;;;;;4979722;28;20065;-46
2022/12/02 03:02:51;;;;;;;34.00;17.58;;;7.00;58.60;;;;;;4977320;28;20399;-50
2022/12/02 03:05:20;;;;;;;34.63;17.83;;;7.00;58.50;;;;;;4983034;28;20445;-47
2022/12/02 03:07:48;;;;;;;37.40;17.77;;;7.00;58.40;;;;;;4981079;28;20057;-48
2022/12/02 03:10:16;;;;;;;34.60;17.45;;;7.00;58.30;;;;;;4978582;28;20046;-47
2022/12/02 03:12:45;;;;;;;31.85;17.23;;;7.00;58.30;;;;;;4979838;28;20810;-46
2022/12/02 03:15:14;;;;;;;34.13;18.17;;;7.00;58.30;;;;;;4978349;28;20490;-48
2022/12/02 03:17:42;;;;;;;34.30;16.80;;;7.00;58.10;;;;;;4981161;28;20054;-43
2022/12/02 03:20:10;;;;;;;37.03;17.95;;;7.00;58.10;;;;;;4980059;28;20513;-48
2022/12/02 03:22:38;;;;;;;36.50;17.60;;;7.00;58.20;;;;;;4980405;28;20050;-47
2022/12/02 03:25:07;;;;;;;35.30;17.88;;;6.90;58.30;;;;;;4982743;28;20058;-47
2022/12/02 03:27:35;;;;;;;34.70;17.20;;;6.90;58.40;;;;;;4983987;28;20515;-48
2022/12/02 03:30:03;;;;;;;35.30;18.27;;;6.90;58.50;;;;;;4981913;28;21251;-47
2022/12/02 03:32:31;;;;;;;41.05;18.83;;;6.90;58.70;;;;;;4982053;28;20401;-44
2022/12/02 03:35:01;;;;;;;40.33;19.20;;;6.90;58.70;;;;;;4983528;28;20505;-52
2022/12/02 03:37:29;;;;;;;37.33;18.00;;;6.90;58.70;;;;;;4981383;28;20077;-48
2022/12/02 03:39:56;;;;;;;36.15;17.38;;;6.90;58.70;;;;;;4983147;28;20399;-49
2022/12/02 03:42:23;;;;;;;35.75;17.33;;;6.90;58.70;;;;;;4980763;28;20406;-50
2022/12/02 03:44:51;;;;;;;35.45;17.83;;;6.90;58.70;;;;;;4983872;28;20057;-49
2022/12/02 03:54:05;;;;;;;42.92;18.75;;;6.90;58.60;;;;;;4988661;28;20044;-56
2022/12/02 03:56:36;;;;;;;39.60;19.63;;;6.90;58.50;;;;;;4983699;28;20070;-58
2022/12/02 03:59:04;;;;;;;35.20;16.90;;;6.90;58.60;;;;;;4985689;28;20061;-56
2022/12/02 04:01:31;;;;;;;38.70;18.05;;;6.90;58.70;;;;;;4982414;28;20498;-54
2022/12/02 04:03:58;;;;;;;37.47;18.20;;;6.90;58.70;;;;;;4982718;28;20402;-57
2022/12/02 04:06:26;;;;;;;40.05;18.50;;;6.90;58.70;;;;;;4985752;28;20061;-57
2022/12/02 04:08:53;;;;;;;38.85;18.15;;;7.00;58.70;;;;;;4982889;28;20061;-57
2022/12/02 04:11:21;;;;;;;38.97;18.85;;;7.00;58.70;;;;;;4980616;28;20042;-57
2022/12/02 04:13:49;;;;;;;41.65;18.58;;;7.00;58.80;;;;;;4983992;28;20054;-53
2022/12/02 04:16:16;;;;;;;40.63;19.38;;;7.00;58.70;;;;;;4982195;28;20049;-56
2022/12/02 04:18:43;;;;;;;35.63;17.55;;;7.00;58.70;;;;;;4984500;28;20054;-55
2022/12/02 04:21:10;;;;;;;38.05;18.83;;;7.00;58.70;;;;;;4979755;28;20513;-53
2022/12/02 04:23:37;;;;;;;35.80;17.17;;;7.00;58.70;;;;;;4980949;28;20061;-57
2022/12/02 04:26:05;;;;;;;32.15;17.08;;;7.00;58.70;;;;;;4984849;28;20636;-56
2022/12/02 04:28:33;;;;;;;38.33;18.85;;;7.00;58.80;;;;;;4981148;28;20066;-57
2022/12/02 04:31:00;;;;;;;36.75;17.60;;;7.10;58.70;;;;;;4978991;28;20410;-57
2022/12/02 04:33:28;;;;;;;34.03;17.20;;;7.10;58.70;;;;;;4980389;28;20054;-58
2022/12/02 04:35:55;;;;;;;38.38;18.38;;;7.10;58.70;;;;;;4982644;28;20076;-57
2022/12/02 04:38:23;;;;;;;34.17;16.98;;;7.10;58.70;;;;;;4983779;28;20065;-57
2022/12/02 04:40:50;;;;;;;35.53;17.65;;;7.10;58.70;;;;;;4982890;28;20061;-57
2022/12/02 04:43:17;;;;;;;39.22;18.70;;;7.10;58.70;;;;;;4983735;28;20069;-57
2022/12/02 04:45:45;;;;;;;39.55;18.33;;;7.10;58.60;;;;;;4983031;28;20054;-58
2022/12/02 04:48:13;;;;;;;41.45;19.25;;;7.10;58.60;;;;;;4982743;28;20054;-57
2022/12/02 04:50:40;;;;;;;40.83;18.23;;;7.10;58.60;;;;;;4979556;28;20057;-57
2022/12/02 04:53:07;;;;;;;41.53;19.00;;;7.10;58.60;;;;;;4978719;28;20433;-57
2022/12/02 04:55:34;;;;;;;38.55;18.05;;;7.10;58.60;;;;;;4982166;28;20383;-57
2022/12/02 04:58:01;;;;;;;40.92;19.80;;;7.10;58.60;;;;;;4981875;28;20589;-57
2022/12/02 05:00:28;;;;;;;37.45;18.77;;;7.10;58.60;;;;;;4976887;28;20058;-55
2022/12/02 05:02:57;;;;;;;36.45;17.48;;;7.10;58.70;;;;;;4978678;28;20069;-57
2022/12/02 05:05:24;;;;;;;40.22;19.23;;;7.00;58.70;;;;;;4982790;28;20506;-52
2022/12/02 05:07:51;;;;;;;37.58;18.95;;;7.00;58.70;;;;;;4982075;28;20054;-57
2022/12/02 05:10:18;;;;;;;39.65;18.45;;;7.00;58.70;;;;;;4975112;28;20057;-57
2022/12/02 05:12:46;;;;;;;39.70;18.70;;;7.00;58.80;;;;;;4981749;28;20061;-57
2022/12/02 05:15:15;;;;;;;37.55;17.23;;;7.00;58.80;;;;;;4982124;28;20062;-57
2022/12/02 05:17:42;;;;;;;36.65;16.75;;;7.00;58.90;;;;;;4974826;28;20047;-54
2022/12/02 05:20:12;;;;;;;37.33;16.70;;;7.00;59.00;;;;;;4983081;28;20057;-57
2022/12/02 05:22:40;;;;;;;39.28;18.58;;;7.10;59.10;;;;;;4976824;28;20050;-57
2022/12/02 05:25:07;;;;;;;40.47;19.63;;;7.10;59.00;;;;;;4974456;28;20058;-57
2022/12/02 05:27:35;;;;;;;38.10;18.10;;;7.10;58.90;;;;;;4982646;28;20402;-58
2022/12/02 05:30:02;;;;;;;39.22;17.75;;;7.10;58.80;;;;;;4981141;28;20065;-53
2022/12/02 05:32:29;;;;;;;41.60;18.42;;;7.10;58.80;;;;;;4981582;28;20050;-58
2022/12/02 05:34:56;;;;;;;42.42;18.77;;;7.20;58.90;;;;;;4981465;28;20058;-58
2022/12/02 05:37:25;;;;;;;41.10;18.85;;;7.10;58.90;;;;;;4981230;28;20069;-55
2022/12/02 05:39:52;;;;;;;39.65;18.88;;;7.10;58.90;;;;;;4977247;28;20510;-57
2022/12/02 05:42:19;;;;;;;43.92;19.50;;;7.10;58.80;;;;;;4981709;28;20047;-58
2022/12/02 05:44:47;;;;;;;45.35;19.70;;;7.10;58.90;;;;;;4982374;28;20054;-57
2022/12/02 05:47:15;;;;;;;40.53;19.60;;;7.10;58.80;;;;;;4983626;28;20878;-54
2022/12/02 05:49:45;;;;;;;48.33;19.98;;;7.10;58.90;;;;;;4981008;28;20505;-55
2022/12/02 05:52:23;;;;;;;43.38;21.65;;;7.10;58.90;;;;;;4983512;28;20050;-57
2022/12/02 05:54:55;;;;;;;43.88;21.50;;;7.10;58.90;;;;;;4982604;28;20061;-57
2022/12/02 05:57:24;;;;;;;45.30;21.20;;;7.10;58.80;;;;;;4983145;28;20054;-55
2022/12/02 05:59:57;;;;;;;45.65;21.13;;;7.10;58.80;;;;;;4984251;28;20058;-58
2022/12/02 06:02:30;;;;;;;42.53;18.67;;;7.10;58.80;;;;;;4983098;28;20058;-57
2022/12/02 06:04:57;;;;;;;34.88;16.77;;;7.10;58.90;;;;;;4982287;28;20058;-58
2022/12/02 06:07:25;;;;;;;42.22;20.50;;;7.10;59.10;;;;;;4982937;28;20402;-57
2022/12/02 06:09:53;;;;;;;46.90;21.10;;;7.10;59.20;;;;;;4983693;28;20058;-57
2022/12/02 06:12:21;;;;;;;42.88;20.67;;;7.10;59.10;;;;;;4984173;28;20062;-57
2022/12/02 06:14:53;;;;;;;50.55;21.67;;;7.10;59.10;;;;;;4983535;28;20054;-56
2022/12/02 06:17:21;;;;;;;45.00;20.33;;;7.10;59.10;;;;;;4983906;28;20058;-57
2022/12/02 06:19:52;;;;;;;49.05;22.00;;;7.10;59.10;;;;;;4982179;28;20498;-58
2022/12/02 06:22:24;;;;;;;49.20;21.90;;;7.10;59.00;;;;;;4982687;28;20062;-57
2022/12/02 06:24:54;;;;;;;47.38;21.08;;;7.10;59.00;;;;;;4982359;28;20051;-57
2022/12/02 06:27:22;;;;;;;50.70;21.67;;;7.10;59.00;;;;;;4984070;28;20402;-57
2022/12/02 06:29:52;;;;;;;45.80;20.42;;;7.10;59.00;;;;;;4982451;28;20055;-57
2022/12/02 06:32:22;;;;;;;52.65;22.85;;;7.10;59.00;;;;;;4977468;28;20058;-58
2022/12/02 06:34:51;;;;;;;48.63;21.65;;;7.10;59.00;;;;;;4982758;28;20054;-57
2022/12/02 06:37:22;;;;;;;47.70;21.83;;;7.10;59.10;;;;;;4983097;28;20062;-54
2022/12/02 06:39:54;;;;;;;51.35;20.77;;;7.10;59.10;;;;;;4982120;28;20069;-57
2022/12/02 06:42:31;;;;;;;49.88;22.10;;;7.10;59.10;;;;;;4983964;28;20058;-58
2022/12/02 06:45:07;;;;;;;41.22;20.23;;;7.10;59.20;;;;;;4982895;28;20142;-56
2022/12/02 06:48:06;;;;;;;58.83;23.80;;;7.10;59.20;;;;;;4983254;28;20054;-54
2022/12/02 06:50:37;;;;;;;54.35;22.20;;;7.10;59.10;;;;;;4983513;28;20061;-58
2022/12/02 06:53:22;;;;;;;51.90;23.30;;;7.10;59.10;;;;;;4971069;28;20055;-55
2022/12/02 06:55:54;;;;;;;58.03;22.90;;;7.10;59.10;;;;;;4980157;28;20057;-57
2022/12/02 06:58:33;;;;;;;57.92;22.80;;;7.10;59.10;;;;;;4985927;28;20518;-58
2022/12/02 07:01:23;;;;;;;49.45;21.90;;;7.10;59.20;;;;;;4984891;28;20058;-57
2022/12/02 07:04:04;;;;;;;56.22;23.27;;;7.10;59.20;;;;;;4983903;28;20065;-56
2022/12/02 07:06:35;;;;;;;53.67;23.15;;;7.10;59.20;;;;;;4986976;28;20065;-58
2022/12/02 07:09:05;;;;;;;55.13;22.27;;;7.10;59.20;;;;;;4985537;28;20054;-58
2022/12/02 07:11:52;;;;;;;61.05;24.75;;;7.10;59.30;;;;;;4985027;28;20046;-58
2022/12/02 07:14:27;;;;;;;53.28;22.38;;;7.10;59.30;;;;;;4987252;28;20073;-57
2022/12/02 07:16:57;;;;;;;54.92;22.48;;;7.10;59.30;;;;;;4985426;28;20474;-57
2022/12/02 07:22:49;;;;;;;55.55;22.05;;;7.10;59.30;;;;;;5002744;28;20045;-58
2022/12/02 07:28:51;;;;;;;64.43;24.40;;;7.10;59.40;;;;;;5002416;28;20512;-58
2022/12/02 07:31:23;;;;;;;59.83;24.75;;;7.00;59.40;;;;;;4981920;28;20062;-58
2022/12/02 07:33:51;;;;;;;59.05;24.25;;;7.10;59.40;;;;;;4986118;28;20058;-57
2022/12/02 07:36:19;;;;;;;59.78;23.90;;;7.00;59.40;;;;;;4984872;28;20062;-58
2022/12/02 07:38:46;;;;;;;67.93;26.20;;;7.00;59.50;;;;;;4982998;28;20494;-57
2022/12/02 07:41:14;;;;;;;58.08;24.13;;;7.00;59.60;;;;;;4983810;28;20509;-56
2022/12/02 07:43:41;;;;;;;65.15;27.55;;;7.00;59.60;;;;;;4986165;28;20050;-58
2022/12/02 07:46:08;;;;;;;65.75;27.15;;;7.00;59.60;;;;;;4984425;28;20118;-57
2022/12/02 07:48:37;;;;;;;59.83;23.85;;;7.00;59.50;;;;;;4982807;28;20486;-57
2022/12/02 07:51:04;;;;;;;54.78;23.55;;;7.00;59.60;;;;;;4983984;28;20502;-57
2022/12/02 07:53:32;;;;;;;61.75;23.80;;;7.00;59.70;;;;;;4984195;28;20062;-57
2022/12/02 07:55:59;;;;;;;68.88;26.50;;;7.00;59.80;;;;;;4984113;28;21284;-57
2022/12/02 07:58:26;;;;;;;65.95;26.20;;;7.00;59.80;;;;;;4983921;28;20058;-57
2022/12/02 08:00:53;;;;;;;64.97;25.50;;;7.00;59.90;;;;;;4983753;28;20046;-56
2022/12/02 08:03:21;;;;;;;68.75;26.60;;;7.00;60.00;;;;;;4985263;28;20057;-55
2022/12/02 08:05:49;;;;;;;71.60;27.70;;;7.00;60.00;;;;;;4982957;28;20069;-54
2022/12/02 08:08:16;;;;;;;68.03;24.13;;;7.00;60.00;;;;;;4983854;28;20046;-57
2022/12/02 08:10:44;;;;;;;70.50;27.20;;;7.00;60.00;;;;;;4983983;28;20543;-57
2022/12/02 08:13:11;;;;;;;64.25;23.85;;;7.00;60.00;;;;;;4985741;28;20505;-57
2022/12/02 08:15:38;;;;;;;62.95;24.88;;;7.10;60.10;;;;;;4984499;28;20062;-57
2022/12/02 08:18:06;;;;;;;56.47;24.33;;;7.10;60.10;;;;;;4982031;28;20088;-57
2022/12/02 08:20:33;;;;;;;78.85;28.58;;;7.10;60.10;;;;;;4984627;28;20062;-55
2022/12/02 08:23:04;;;;;;;67.28;27.35;;;7.20;60.10;;;;;;4983971;28;20050;-58
2022/12/02 08:25:31;;;;;;;71.35;27.88;;;7.20;60.00;;;;;;4984207;28;20057;-55
2022/12/02 08:27:58;;;;;;;55.30;22.33;;;7.20;59.90;;;;;;4984200;28;20410;-54
2022/12/02 08:30:25;;;;;;;71.47;27.02;;;7.20;59.90;;;;;;4979509;28;20061;-57
2022/12/02 08:32:52;;;;;;;59.63;24.73;;;7.20;59.90;;;;;;4983252;28;20387;-56
2022/12/02 08:35:20;;;;;;;67.30;26.92;;;7.30;59.90;;;;;;4982850;28;20053;-57
2022/12/02 08:37:47;;;;;;;78.57;28.02;;;7.30;59.90;;;;;;4980318;28;20531;-55
2022/12/02 08:40:15;;;;;;;62.45;25.27;;;7.30;59.90;;;;;;4981312;28;20054;-51
2022/12/02 08:42:43;;;;;;;65.75;25.67;;;7.30;59.80;;;;;;4983997;28;20046;-57
2022/12/02 08:45:11;;;;;;;74.78;27.52;;;7.30;59.80;;;;;;4983389;28;20050;-57
2022/12/02 08:47:38;;;;;;;80.45;27.45;;;7.30;59.80;;;;;;4983727;28;20494;-57
2022/12/02 08:50:07;;;;;;;63.97;25.90;;;7.40;59.70;;;;;;4984086;28;20054;-56
2022/12/02 08:52:34;;;;;;;74.22;26.63;;;7.30;59.60;;;;;;4978491;28;20061;-57
2022/12/02 08:55:01;;;;;;;69.55;26.85;;;7.40;59.70;;;;;;4983745;28;20691;-57
2022/12/02 08:57:30;;;;;;;72.53;28.35;;;7.40;59.70;;;;;;4982572;28;20054;-58
2022/12/02 08:59:57;;;;;;;73.22;27.67;;;7.40;59.70;;;;;;4984768;28;20051;-52
2022/12/02 09:02:26;;;;;;;62.35;25.13;;;7.30;59.70;;;;;;4983079;28;20046;-54
2022/12/02 09:04:53;;;;;;;73.57;27.73;;;7.40;59.80;;;;;;4982014;28;20510;-58
2022/12/02 09:07:20;;;;;;;73.53;28.67;;;7.30;59.80;;;;;;4983907;28;20058;-58
2022/12/02 09:09:48;;;;;;;79.57;30.08;;;7.30;59.80;;;;;;4983430;28;20076;-58
2022/12/02 09:12:15;;;;;;;73.97;26.58;;;7.40;59.80;;;;;;4981533;28;20054;-57
2022/12/02 09:14:43;;;;;;;65.18;26.38;;;7.40;59.80;;;;;;4983929;28;20054;-57
2022/12/02 09:17:11;;;;;;;72.82;28.10;;;7.40;59.90;;;;;;4981594;28;20050;-57
2022/12/02 09:19:38;;;;;;;73.75;27.33;;;7.40;60.00;;;;;;4981590;28;20057;-57
2022/12/02 09:22:05;;;;;;;64.00;25.15;;;7.40;60.00;;;;;;4981808;28;20065;-57
2022/12/02 09:24:33;;;;;;;75.63;27.67;;;7.40;59.90;;;;;;4983004;28;20050;-57
2022/12/02 09:27:00;;;;;;;73.80;28.17;;;7.40;59.90;;;;;;4982914;28;20944;-57
2022/12/02 09:29:27;;;;;;;67.13;25.35;;;7.40;59.90;;;;;;4984479;28;20058;-58
2022/12/02 09:31:56;;;;;;;63.80;24.67;;;7.40;59.80;;;;;;4981482;28;20054;-56
2022/12/02 09:34:23;;;;;;;73.07;27.45;;;7.40;59.90;;;;;;4983386;28;20505;-58
2022/12/02 09:36:50;;;;;;;68.50;27.35;;;7.40;59.90;;;;;;4979510;28;20054;-55
2022/12/02 09:39:18;;;;;;;70.40;27.30;;;7.40;60.00;;;;;;4982906;28;20058;-51
2022/12/02 09:41:45;;;;;;;67.18;26.70;;;7.40;59.90;;;;;;4984309;28;20058;-56
2022/12/02 09:44:12;;;;;;;79.65;29.65;;;7.40;59.90;;;;;;4981590;28;20050;-57
2022/12/02 09:46:40;;;;;;;65.00;27.05;;;7.40;59.90;;;;;;4980973;28;20054;-58
2022/12/02 09:49:08;;;;;;;69.07;27.10;;;7.40;60.60;;;;;;4982128;28;20050;-58
2022/12/02 09:51:36;;;;;;;71.63;29.00;;;7.40;60.00;;;;;;4982105;28;20054;-58
2022/12/02 09:54:04;;;;;;;63.67;25.08;;;7.40;60.10;;;;;;4980471;28;20046;-53
2022/12/02 09:56:31;;;;;;;68.75;26.95;;;7.40;60.20;;;;;;4981031;28;20061;-56
2022/12/02 09:58:58;;;;;;;68.90;26.58;;;7.40;60.30;;;;;;4983173;28;20053;-57
2022/12/02 10:01:26;;;;;;;73.60;28.83;;;7.40;60.40;;;;;;4982967;28;20054;-57
2022/12/02 10:03:55;;;;;;;65.88;26.45;;;7.40;60.40;;;;;;4983549;28;20056;-58
2022/12/02 10:06:28;;;;;;;79.22;30.42;;;7.40;60.30;;;;;;4984196;28;20054;-57
2022/12/02 10:08:57;;;;;;;71.53;27.13;;;7.40;60.10;;;;;;4981295;28;20062;-55
2022/12/02 10:11:27;;;;;;;72.65;28.70;;;7.40;60.00;;;;;;4981759;28;20058;-55
2022/12/02 10:13:55;;;;;;;71.20;27.98;;;7.40;60.10;;;;;;4982715;28;20061;-52
2022/12/02 10:16:22;;;;;;;61.60;24.35;;;7.40;60.30;;;;;;4979401;28;20062;-51
2022/12/02 10:18:50;;;;;;;58.05;24.95;;;7.40;60.30;;;;;;4982791;28;20046;-54
2022/12/02 10:21:17;;;;;;;55.35;23.15;;;7.40;60.40;;;;;;4980356;28;20042;-54
2022/12/02 10:23:57;;;;;;;66.70;26.27;;;7.40;60.60;;;;;;4981328;28;20050;-55
2022/12/02 10:26:26;;;;;;;52.50;22.40;;;7.50;60.70;;;;;;4983582;28;20061;-56
2022/12/02 10:29:00;;;;;;;65.63;24.77;;;7.50;60.60;;;;;;4983415;28;20061;-57
2022/12/02 10:31:28;;;;;;;56.90;23.05;;;7.50;60.40;;;;;;4984145;28;20050;-57
2022/12/02 10:33:58;;;;;;;54.30;22.58;;;7.60;60.30;;;;;;4987058;28;20051;-57
2022/12/02 10:36:33;;;;;;;45.45;19.92;;;7.60;60.10;;;;;;4984210;28;20066;-56
2022/12/02 10:39:24;;;;;;;44.60;20.35;;;7.70;60.20;;;;;;4984466;28;20054;-56
2022/12/02 10:42:10;;;;;;;39.60;17.85;;;7.70;60.20;;;;;;4982077;28;20054;-56
2022/12/02 10:44:41;;;;;;;29.13;14.35;;;7.80;60.10;;;;;;4986182;28;20050;-57
2022/12/02 10:47:16;;;;;;;20.50;11.07;;;7.80;59.90;;;;;;4987002;28;20058;-56
2022/12/02 10:49:46;;;;;;;20.52;10.52;;;7.90;59.60;;;;;;4985728;28;20050;-57
2022/12/02 10:52:15;;;;;;;19.10;9.60;;;8.00;59.50;;;;;;4985291;28;20054;-54
2022/12/02 10:54:48;;;;;;;17.52;8.85;;;8.00;59.30;;;;;;4984996;28;20054;-57
2022/12/02 10:57:22;;;;;;;14.20;7.90;;;8.00;59.00;;;;;;4986455;28;20054;-57
2022/12/02 10:59:50;;;;;;;17.55;7.85;;;8.00;58.80;;;;;;4986690;28;20059;-56
2022/12/02 11:02:26;;;;;;;14.93;8.18;;;8.10;58.80;;;;;;4984905;28;20065;-57
2022/12/02 11:04:54;;;;;;;17.02;8.10;;;8.10;58.60;;;;;;4985344;28;20051;-52
2022/12/02 11:07:23;;;;;;;15.40;8.20;;;8.10;58.50;;;;;;4982819;28;20061;-55
2022/12/02 11:09:54;;;;;;;14.45;7.53;;;8.10;58.30;;;;;;4984965;28;20061;-53
2022/12/02 11:12:36;;;;;;;13.15;6.80;;;8.10;58.10;;;;;;4984405;28;20430;-56
2022/12/02 11:15:21;;;;;;;12.57;7.32;;;8.20;58.00;;;;;;4984906;28;20054;-56
2022/12/02 11:17:50;;;;;;;11.02;6.97;;;8.10;57.90;;;;;;4984212;28;20058;-56
2022/12/02 11:20:42;;;;;;;10.70;6.43;;;8.20;57.90;;;;;;4985290;28;20498;-57
2022/12/02 11:23:21;;;;;;;13.88;6.43;;;8.20;57.70;;;;;;4984431;28;20057;-49
2022/12/02 11:26:09;;;;;;;8.13;4.82;;;8.20;57.50;;;;;;4986283;28;20057;-53
2022/12/02 11:29:05;;;;;;;8.05;4.43;;;8.20;57.50;;;;;;4983790;28;20057;-55
2022/12/02 11:31:32;;;;;;;7.53;4.75;;;8.10;57.30;;;;;;4976152;28;20073;-55
2022/12/02 11:34:05;;;;;;;7.88;4.78;;;8.20;57.40;;;;;;4986127;28;20077;-57
2022/12/02 11:36:34;;;;;;;9.80;5.32;;;8.20;57.20;;;;;;4985185;28;20058;-58
2022/12/02 11:39:07;;;;;;;6.18;4.43;;;8.20;57.20;;;;;;4983353;28;20055;-56
2022/12/02 11:42:11;;;;;;;9.15;4.47;;;8.10;57.00;;;;;;4984356;28;20069;-56
2022/12/02 11:44:40;;;;;;;6.57;4.63;;;8.10;56.90;;;;;;4975062;28;20430;-56
2022/12/02 11:47:28;;;;;;;8.02;5.28;;;8.10;56.90;;;;;;4985224;28;20058;-54
2022/12/02 11:50:09;;;;;;;7.45;4.68;;;8.10;56.70;;;;;;4984986;28;20062;-54
2022/12/02 11:52:39;;;;;;;6.65;5.05;;;8.10;56.80;;;;;;4984823;28;20062;-57
2022/12/02 11:55:14;;;;;;;7.47;4.95;;;8.10;56.80;;;;;;4985196;28;20061;-57
2022/12/02 11:57:46;;;;;;;8.15;5.30;;;8.10;56.80;;;;;;4983572;28;20061;-57
2022/12/02 12:00:24;;;;;;;8.73;5.45;;;8.10;56.90;;;;;;4984268;28;20084;-56
2022/12/02 12:03:11;;;;;;;9.90;6.43;;;8.00;56.80;;;;;;4984543;28;20065;-56
2022/12/02 12:05:38;;;;;;;9.68;5.85;;;8.00;56.70;;;;;;4985648;28;20065;-56
2022/12/02 12:08:06;;;;;;;9.77;6.38;;;8.00;56.70;;;;;;4982645;28;20058;-53
2022/12/02 12:10:35;;;;;;;8.30;5.68;;;8.00;56.60;;;;;;4983370;28;20450;-56
2022/12/02 12:13:18;;;;;;;9.57;5.85;;;7.90;56.50;;;;;;4985232;28;20053;-56
2022/12/02 12:15:57;;;;;;;9.73;6.00;;;7.90;56.50;;;;;;4983975;28;20057;-53
2022/12/02 12:18:45;;;;;;;9.85;6.30;;;7.90;56.60;;;;;;4984030;28;20064;-56
2022/12/02 12:21:14;;;;;;;9.60;6.18;;;7.90;56.70;;;;;;4983787;28;20046;-56
2022/12/02 12:23:43;;;;;;;8.93;6.28;;;7.90;56.70;;;;;;4983957;28;20054;-57
2022/12/02 12:26:32;;;;;;;9.68;6.30;;;7.80;56.80;;;;;;4984471;28;20061;-57
2022/12/02 12:29:03;;;;;;;10.75;6.68;;;7.80;56.80;;;;;;4984249;28;20058;-57
2022/12/02 12:31:32;;;;;;;9.65;6.72;;;7.80;56.90;;;;;;4983220;28;20054;-53
2022/12/02 12:33:59;;;;;;;10.48;6.43;;;7.80;56.90;;;;;;4985343;28;20478;-57
2022/12/02 12:36:26;;;;;;;11.60;6.40;;;7.80;56.90;;;;;;4983247;28;20046;-55
2022/12/02 12:38:54;;;;;;;10.30;6.53;;;7.80;57.00;;;;;;4983491;28;20506;-51
2022/12/02 12:41:21;;;;;;;10.70;6.72;;;7.80;57.00;;;;;;4982874;28;20085;-56
2022/12/02 12:43:49;;;;;;;11.60;7.40;;;7.80;57.10;;;;;;4981484;28;20061;-55
2022/12/02 12:46:16;;;;;;;10.60;7.10;;;7.80;57.10;;;;;;4981291;28;20054;-57
2022/12/02 12:48:45;;;;;;;12.80;7.80;;;7.80;57.10;;;;;;4979632;28;20050;-51
2022/12/02 12:51:12;;;;;;;12.43;7.55;;;7.80;57.00;;;;;;4981932;28;20054;-56
2022/12/02 12:53:39;;;;;;;12.98;8.15;;;7.80;57.00;;;;;;4982986;28;20074;-56
2022/12/02 12:56:07;;;;;;;15.77;8.63;;;7.80;56.90;;;;;;4984829;28;20058;-56
2022/12/02 12:58:34;;;;;;;12.07;7.70;;;7.80;56.80;;;;;;4982834;28;20058;-57
2022/12/02 13:01:03;;;;;;;13.60;8.35;;;7.80;56.80;;;;;;4983198;28;20050;-54
2022/12/02 13:03:30;;;;;;;14.60;8.88;;;7.80;56.70;;;;;;4984129;28;20055;-55
2022/12/02 13:05:59;;;;;;;14.20;8.52;;;7.80;56.70;;;;;;4984814;28;20395;-56
2022/12/02 13:08:26;;;;;;;13.05;8.60;;;7.70;56.60;;;;;;4979104;28;20065;-56
2022/12/02 13:10:54;;;;;;;14.05;8.90;;;7.70;56.60;;;;;;4982530;28;20418;-56